Crab Orchard, Tennessee
Current Conditions -  °F | °C
As of 10:53 AM on Saturday 22 Nov 2014 (Local Time) from KCSV Reporting Station
Clear Clear  
Wind Chill: 54°   Ceiling: Unl
Heat Index: 54°   Visibility: 10mi
Dew Point: 28°   Wind: 9mph
Humidity: 37%   Direction: 180°S
Pressure: 30.34"   Gusts: 26mph
Location:  35.91°N, 84.88°W
Report Text: KCSV 221653Z AUTO 18008G23KT 150V210 10SM CLR 12/M02 A3034 RMK AO2 SLP277 T01221022
Loading
Personal Weather Stations






























Interactive Weather Map New forecast layout! Learn more

10-Day Weather Forecast

Advertisements
Track Severe Weather on mobile